createdAt,value
2022-11-27T00:20:57.867Z,1032.38
2022-11-27T00:30:34.527Z,1032.14
2022-11-27T00:40:11.143Z,1031.94
2022-11-27T00:49:47.595Z,1031.76
2022-11-27T01:09:00.927Z,1031.75
2022-11-27T01:18:37.630Z,1031.82
2022-11-27T01:28:14.672Z,1031.8
2022-11-27T01:37:51.197Z,1031.77
2022-11-27T01:57:04.554Z,1031.51
2022-11-27T02:16:18.363Z,1031.39
2022-11-27T02:25:54.364Z,1031.4
2022-11-27T02:35:30.763Z,1031.38
2022-11-27T02:45:07.270Z,1031.37
2022-11-27T02:54:43.890Z,1031.38
2022-11-27T03:04:20.397Z,1031.25
2022-11-27T03:13:56.821Z,1031.27
2022-11-27T03:23:33.582Z,1031.24
2022-11-27T03:33:09.961Z,1031.15
2022-11-27T03:42:46.597Z,1031.11
2022-11-27T03:52:23.359Z,1030.93
2022-11-27T04:01:59.918Z,1030.87
2022-11-27T04:11:36.473Z,1030.84
2022-11-27T04:21:12.973Z,1030.85
2022-11-27T04:30:49.560Z,1031.08
2022-11-27T04:40:26.209Z,1030.88
2022-11-27T04:50:02.527Z,1030.91
2022-11-27T04:59:39.697Z,1030.91
2022-11-27T05:09:16.159Z,1030.83
2022-11-27T05:18:52.993Z,1030.77
2022-11-27T05:28:29.770Z,1030.91
2022-11-27T05:38:06.206Z,1030.66
2022-11-27T05:47:42.445Z,1030.74
2022-11-27T05:57:18.844Z,1030.6
2022-11-27T06:06:55.132Z,1030.61
2022-11-27T06:16:31.774Z,1030.71
2022-11-27T06:26:08.493Z,1030.49
2022-11-27T06:35:45.031Z,1030.46
2022-11-27T06:45:21.988Z,1030.38
2022-11-27T07:04:34.953Z,1030.12
2022-11-27T07:23:48.572Z,1030.18
2022-11-27T07:33:25.291Z,1030.24
2022-11-27T07:43:01.899Z,1030.08
2022-11-27T07:52:41.721Z,1030.03
2022-11-27T08:02:15.197Z,1029.97
2022-11-27T08:11:52.133Z,1029.81
2022-11-27T08:21:29.109Z,1029.72
2022-11-27T08:31:06.413Z,1029.46
2022-11-27T08:40:43.624Z,1029.4
2022-11-27T08:50:20.032Z,1029.3
2022-11-27T08:59:57.489Z,1029.29
2022-11-27T09:09:35.480Z,1029.22
2022-11-27T09:19:13.184Z,1029.15
2022-11-27T09:28:56.436Z,1029.04
2022-11-27T09:38:34.960Z,1029.03
2022-11-27T09:48:12.043Z,1029.06
2022-11-27T09:57:49.184Z,1028.86
2022-11-27T10:07:26.605Z,1028.6
2022-11-27T10:17:04.528Z,1028.41
2022-11-27T10:36:20.938Z,1028.02
2022-11-27T10:45:58.798Z,1027.8
2022-11-27T10:55:34.876Z,1027.61
2022-11-27T11:05:32.741Z,1027.36
2022-11-27T11:14:49.730Z,1027.32
2022-11-27T11:34:05.251Z,1027.01
2022-11-27T11:43:43.990Z,1026.71
2022-11-27T11:53:21.980Z,1026.57
2022-11-27T12:02:59.968Z,1026.37
2022-11-27T12:12:39.026Z,1026.08
2022-11-27T12:31:53.513Z,1026.13
2022-11-27T12:41:30.903Z,1025.99
2022-11-27T12:51:07.700Z,1025.66
2022-11-27T13:00:45.010Z,1025.57
2022-11-27T13:10:22.997Z,1025.4
2022-11-27T13:20:08.973Z,1025.47
2022-11-27T13:29:52.440Z,1025.28
2022-11-27T13:39:15.741Z,1025.26
2022-11-27T13:48:49.152Z,1025.14
2022-11-27T13:58:24.913Z,1025.07
2022-11-27T14:08:00.554Z,1024.97
2022-11-27T14:17:36.259Z,1025
2022-11-27T14:27:12.131Z,1024.93
2022-11-27T14:36:48.756Z,1024.78
2022-11-27T14:46:25.065Z,1024.67
2022-11-27T15:05:40.004Z,1024.45
2022-11-27T15:15:15.682Z,1024.32
2022-11-27T15:24:52.229Z,1024.21
2022-11-27T15:34:28.893Z,1024.07
2022-11-27T15:44:05.585Z,1023.91
2022-11-27T15:53:42.111Z,1023.84
2022-11-27T16:03:19.196Z,1023.82
2022-11-27T16:12:56.230Z,1023.58
2022-11-27T16:22:33.196Z,1023.55
2022-11-27T16:32:10.577Z,1023.36
2022-11-27T16:41:47.347Z,1023.2
2022-11-27T16:51:23.926Z,1023.11
2022-11-27T17:01:00.875Z,1023.03
2022-11-27T17:10:37.715Z,1023.07
2022-11-27T17:29:50.896Z,1023.34
2022-11-27T17:39:27.869Z,1023.27
2022-11-27T17:49:04.669Z,1023.13
2022-11-27T17:58:41.726Z,1023.06
2022-11-27T18:08:18.679Z,1022.95
2022-11-27T18:17:56.224Z,1022.78
2022-11-27T18:27:32.179Z,1022.72
2022-11-27T18:37:09.315Z,1022.73
2022-11-27T18:46:45.929Z,1022.62
2022-11-27T18:56:22.802Z,1022.52
2022-11-27T19:05:59.311Z,1022.54
2022-11-27T19:15:36.192Z,1022.48
2022-11-27T19:25:13.241Z,1022.24
2022-11-27T19:34:50.232Z,1022.09
2022-11-27T19:44:28.695Z,1022.02
2022-11-27T19:54:07.022Z,1021.87
2022-11-27T20:03:40.682Z,1021.81
2022-11-27T20:13:18.145Z,1021.79
2022-11-27T20:22:57.174Z,1021.66
2022-11-27T20:32:32.767Z,1021.6
2022-11-27T20:42:09.688Z,1021.49
2022-11-27T20:51:46.819Z,1021.31
2022-11-27T21:01:24.226Z,1021.21
2022-11-27T21:11:00.907Z,1021.15
2022-11-27T21:20:37.562Z,1021.01
2022-11-27T21:30:14.042Z,1020.93
2022-11-27T21:39:50.778Z,1020.89
2022-11-27T21:49:27.863Z,1020.86
2022-11-27T21:59:04.792Z,1020.86
2022-11-27T22:08:41.655Z,1020.77
2022-11-27T22:18:18.291Z,1020.59
2022-11-27T22:27:55.216Z,1020.48
2022-11-27T22:37:31.789Z,1020.23
2022-11-27T22:47:09.004Z,1020.29
2022-11-27T22:56:45.825Z,1020.2
2022-11-27T23:06:23.026Z,1020.16
2022-11-27T23:15:59.971Z,1019.98
2022-11-27T23:25:36.881Z,1019.9
2022-11-27T23:35:13.725Z,1019.73
2022-11-27T23:44:50.668Z,1019.61
2022-11-27T23:54:27.470Z,1019.55
